Vilhelmina South Lapland Airport

ESNV · Västerbotten, 瑞典

罗盘
风向 的 风向 的 风向 到 风向 140° Vilhelmina Airport 10/28
风: 5 kt, 2 beaufort

4 kt

3 kt
改变
0 ft 2.000 4.000 6.000 8.000 10.000
Cloud Cloud Cloud Cloud Cloud Cloud
BKN 5.800
Cloud Cloud Cloud Cloud Cloud Cloud Cloud Cloud
OVC 9.200
METAR ESNV 161520Z AUTO 14005KT 110V170 9999 BKN058/// OVC092/// 21/11 Q1015

METAR Vilhelmina Airport - ESNV/VHM

Vilhelmina Airport是,瑞典中的中型机场。 该机场位于纬度64,57910和经度16,83360。 该机场有一条跑道: 10/28. 本场的ICAO机场代码为ESNV。 该机场的IATA代码为VHM。 机场在Sweden FIR中。

该航空气象观测是针对Vilhelmina Airport在2024年7月16日 17:20, 当地时间进行的。

机场观察

风向为140°,速度为5 kt。 风向在110°和170°之间变化。

可见度为10 km 或者更多。

有碎云在5.800 ft的高度 和 乌云密布在9.200 ft的高度。 破损或更高的上限为5.800 ft。

温度和风寒是21 °C。 露点为11 °C,相对湿度为53%。 海平面上的气压为1015 hPa (QNH)。

白天

今天,太阳从03:04升起,在22:53降落。 这适用于Vilhelmina Airport,世界夏令时可能有所不同。 当地时间与世界标准时间之间的时差为+2 小时。 夏令时目前正在进行中。

公司介绍

我们没有关于这个机场的公司信息。

体会

到Vliegles.nl去找飞行课程,跳伞和其他飞行体验。 浏览页面,了解Vilhelmina Airport附近所有可用的活动。 你也可以使用搜索功能来寻找你所在地附近的特定飞行课程、跳伞或其他飞行体验。

跑道

Id 标题 侧风 逆风 侧风 %
10/28 103°-283° 3 kt 4 kt 60 %

逆风成分最大的方向会被突出显示,并用于横风计算。 这并不一定意味着这个方向在使用。

乌云

5.800 ft BKN 碎云
9.200 ft OVC 乌云密布

温度 & 天气

温度 21 °C
露点 11 °C
相对湿度 53%
Kp-index 0 (0-9)

白天

日出
03:04
中午
12:58
日落
22:53 (5:08)

小工具

你想在你的网站上有一个关于Vilhelmina Airport的当前航空天气(METAR)的小部件吗?

显示HTML代码
报告变更